Stockholm, Maine
Current Conditions -  °F | °C
As of 12:54 PM on Thursday 23 Oct 2014 (Local Time) from KCAR Reporting Station
Few Clouds Few Clouds  
Wind Chill:   Ceiling: Unl
Heat Index:   Visibility: 10mi
Dew Point:   Wind: 12mph
Humidity: 66%   Direction: 30°NNE
Pressure: 30.09"   Gusts: 20mph
Location:  47.04°N, 68.14°W
Report Text: KCAR 231654Z AUTO 03010G17KT 10SM FEW090 09/03 A3009 RMK AO2 SLP198 T00940033
Loading
Personal Weather Stations






























Interactive Weather Map
Tropical Storm Tracking
New forecast layout! Learn more

10-Day Weather Forecast

Advertisements
Track Severe Weather on mobile